createdAt,value
2022-12-25T00:02:08.576Z,98845.06
2022-12-25T00:04:35.568Z,98852.16
2022-12-25T00:07:02.601Z,98859.03
2022-12-25T00:09:30.063Z,98856.53
2022-12-25T00:11:59.585Z,98857.75
2022-12-25T00:14:26.515Z,98862.44
2022-12-25T00:16:53.466Z,98874.25
2022-12-25T00:19:21.766Z,98875.06
2022-12-25T00:21:48.732Z,98881.38
2022-12-25T00:24:15.783Z,98880.00
2022-12-25T00:26:42.728Z,98882.38
2022-12-25T00:29:12.542Z,98880.72
2022-12-25T00:31:39.633Z,98891.13
2022-12-25T00:34:06.602Z,98884.63
2022-12-25T00:36:39.640Z,98882.50
2022-12-25T00:39:08.532Z,98886.28
2022-12-25T00:41:54.297Z,98886.31
2022-12-25T00:44:21.146Z,98876.81
2022-12-25T00:46:48.198Z,98883.47
2022-12-25T00:49:15.306Z,98886.56
2022-12-25T00:51:43.610Z,98893.84
2022-12-25T00:54:10.591Z,98891.66
2022-12-25T00:56:37.587Z,98886.53
2022-12-25T00:59:04.517Z,98891.06
2022-12-25T01:01:31.637Z,98894.16
2022-12-25T01:03:59.328Z,98894.53
2022-12-25T01:06:26.963Z,98898.25
2022-12-25T01:09:14.010Z,98903.09
2022-12-25T01:11:41.096Z,98905.28
2022-12-25T01:14:08.106Z,98900.53
2022-12-25T01:16:35.762Z,98894.84
2022-12-25T01:19:03.257Z,98900.31
2022-12-25T01:21:30.978Z,98900.03
2022-12-25T01:23:59.327Z,98894.69
2022-12-25T01:26:27.386Z,98895.41
2022-12-25T01:28:54.646Z,98896.75
2022-12-25T01:31:24.315Z,98888.09
2022-12-25T01:33:51.395Z,98885.53
2022-12-25T01:36:21.119Z,98889.63
2022-12-25T01:38:48.543Z,98885.41
2022-12-25T01:41:19.251Z,98875.34
2022-12-25T01:44:03.801Z,98878.91
2022-12-25T01:46:31.983Z,98871.03
2022-12-25T01:49:03.503Z,98882.25
2022-12-25T01:51:35.683Z,98882.16
2022-12-25T01:54:05.630Z,98882.91
2022-12-25T01:56:36.435Z,98891.06
2022-12-25T01:59:05.600Z,98893.00
2022-12-25T02:01:32.807Z,98898.28
2022-12-25T02:04:05.133Z,98894.97
2022-12-25T02:06:34.260Z,98898.47
2022-12-25T02:09:01.753Z,98900.06
2022-12-25T02:11:47.079Z,98898.28
2022-12-25T02:14:15.436Z,98901.81
2022-12-25T02:16:58.347Z,98907.75
2022-12-25T02:19:38.271Z,98908.09
2022-12-25T02:22:10.943Z,98908.28
2022-12-25T02:24:56.342Z,98907.81
2022-12-25T02:27:38.327Z,98910.13
2022-12-25T02:30:08.849Z,98915.84
2022-12-25T02:32:43.046Z,98903.44
2022-12-25T02:35:15.480Z,98907.94
2022-12-25T02:37:48.288Z,98908.91
2022-12-25T02:40:19.534Z,98918.50
2022-12-25T02:43:09.715Z,98919.47
2022-12-25T02:46:01.579Z,98927.25
2022-12-25T02:48:51.152Z,98925.56
2022-12-25T02:51:39.928Z,98931.81
2022-12-25T02:54:30.121Z,98940.41
2022-12-25T02:57:16.822Z,98937.28
2022-12-25T03:00:05.648Z,98932.75
2022-12-25T03:02:53.001Z,98945.28
2022-12-25T03:05:42.680Z,98935.06
2022-12-25T03:08:13.991Z,98939.91
2022-12-25T03:11:03.827Z,98939.81
2022-12-25T03:13:34.239Z,98932.41
2022-12-25T03:16:20.093Z,98944.75
2022-12-25T03:18:48.557Z,98935.50
2022-12-25T03:21:34.242Z,98924.66
2022-12-25T03:24:22.311Z,98936.44
2022-12-25T03:26:55.595Z,98932.41
2022-12-25T03:29:41.296Z,98934.19
2022-12-25T03:32:21.020Z,98943.41
2022-12-25T03:35:16.995Z,98950.09
2022-12-25T03:38:23.916Z,98952.41
2022-12-25T03:41:19.249Z,98942.88
2022-12-25T03:44:13.618Z,98946.31
2022-12-25T03:47:06.028Z,98947.34
2022-12-25T03:49:59.859Z,98952.44
2022-12-25T03:52:48.734Z,98963.69
2022-12-25T03:55:37.113Z,98960.88
2022-12-25T03:58:22.840Z,98972.97
2022-12-25T04:01:08.201Z,98972.88
2022-12-25T04:03:54.032Z,98977.09
2022-12-25T04:06:39.249Z,98992.84
2022-12-25T04:09:26.222Z,98994.94
2022-12-25T04:12:11.442Z,98994.31
2022-12-25T04:14:56.927Z,98989.28
2022-12-25T04:17:42.339Z,98989.94
2022-12-25T04:20:28.479Z,98984.22
2022-12-25T04:23:13.818Z,98984.56
2022-12-25T04:26:00.756Z,98986.16
2022-12-25T04:28:46.464Z,98982.19
2022-12-25T04:31:31.960Z,98992.72
2022-12-25T04:34:17.264Z,98999.13
2022-12-25T04:36:44.331Z,98995.94
2022-12-25T04:39:11.416Z,99001.66
2022-12-25T04:41:39.772Z,99006.28
2022-12-25T04:44:06.746Z,99004.56
2022-12-25T04:46:34.048Z,99013.00
2022-12-25T04:49:01.100Z,99014.13
2022-12-25T04:51:28.068Z,99011.72
2022-12-25T04:53:55.019Z,99017.97
2022-12-25T04:56:22.331Z,99017.16
2022-12-25T04:58:50.670Z,99028.50
2022-12-25T05:01:17.762Z,99039.00
2022-12-25T05:03:44.914Z,99040.63
2022-12-25T05:06:13.132Z,99050.22
2022-12-25T05:08:40.094Z,99045.78
2022-12-25T05:11:08.512Z,99045.97
2022-12-25T05:13:35.667Z,99041.81
2022-12-25T05:16:06.972Z,99049.81
2022-12-25T05:18:34.005Z,99047.44
2022-12-25T05:21:01.249Z,99060.19
2022-12-25T05:23:28.185Z,99060.78
2022-12-25T05:25:55.134Z,99065.13
2022-12-25T05:28:22.113Z,99073.09
2022-12-25T05:30:49.106Z,99070.69
2022-12-25T05:33:17.487Z,99064.34
2022-12-25T05:35:44.692Z,99074.38
2022-12-25T05:38:11.607Z,99079.13
2022-12-25T05:40:40.189Z,99095.53
2022-12-25T05:43:07.375Z,99092.34
2022-12-25T05:45:34.729Z,99094.09
2022-12-25T05:48:01.788Z,99100.63
2022-12-25T05:50:30.115Z,99105.88
2022-12-25T05:53:08.031Z,99111.63
2022-12-25T05:55:36.312Z,99120.56
2022-12-25T05:58:03.646Z,99120.56
2022-12-25T06:00:30.644Z,99121.31
2022-12-25T06:02:57.641Z,99115.47
2022-12-25T06:05:25.073Z,99120.88
2022-12-25T06:07:53.427Z,99118.66
2022-12-25T06:10:20.619Z,99125.63
2022-12-25T06:12:47.576Z,99132.50
2022-12-25T06:15:14.778Z,99139.66
2022-12-25T06:17:41.781Z,99143.16
2022-12-25T06:20:09.866Z,99149.38
2022-12-25T06:22:36.811Z,99144.09
2022-12-25T06:25:05.992Z,99146.97
2022-12-25T06:27:32.926Z,99145.66
2022-12-25T06:29:59.887Z,99137.00
2022-12-25T06:32:26.874Z,99145.41
2022-12-25T06:34:53.803Z,99138.88
2022-12-25T06:37:20.789Z,99147.31
2022-12-25T06:39:48.248Z,99155.00
2022-12-25T06:42:16.692Z,99152.63
2022-12-25T06:44:44.561Z,99162.22
2022-12-25T06:47:11.661Z,99161.41
2022-12-25T06:49:38.597Z,99156.69
2022-12-25T06:52:05.614Z,99168.34
2022-12-25T06:54:32.558Z,99165.84
2022-12-25T06:56:59.501Z,99166.03
2022-12-25T06:59:27.971Z,99153.53
2022-12-25T07:01:56.684Z,99155.53
2022-12-25T07:04:28.611Z,99160.34
2022-12-25T07:06:55.593Z,99160.34
2022-12-25T07:09:22.543Z,99170.38
2022-12-25T07:11:49.552Z,99177.00
2022-12-25T07:14:23.433Z,99178.91
2022-12-25T07:16:52.736Z,99188.28
2022-12-25T07:19:19.830Z,99192.44
2022-12-25T07:21:47.342Z,99197.00
2022-12-25T07:24:18.386Z,99180.78
2022-12-25T07:26:45.331Z,99179.06
2022-12-25T07:29:12.527Z,99181.91
2022-12-25T07:31:39.549Z,99177.53
2022-12-25T07:34:07.942Z,99194.16
2022-12-25T07:36:34.999Z,99194.97
2022-12-25T07:39:02.000Z,99194.91
2022-12-25T07:41:29.015Z,99207.41
2022-12-25T07:44:13.847Z,99196.00
2022-12-25T07:46:40.865Z,99203.59
2022-12-25T07:49:10.146Z,99204.28
2022-12-25T07:51:37.184Z,99205.59
2022-12-25T07:54:07.263Z,99201.16
2022-12-25T07:56:34.331Z,99212.97
2022-12-25T07:59:01.319Z,99215.91
2022-12-25T08:01:29.655Z,99222.75
2022-12-25T08:03:58.758Z,99232.47
2022-12-25T08:06:30.422Z,99233.09
2022-12-25T08:08:57.803Z,99229.88
2022-12-25T08:11:24.779Z,99226.84
2022-12-25T08:13:51.763Z,99245.28
2022-12-25T08:16:18.818Z,99240.56
2022-12-25T08:18:45.830Z,99236.19
2022-12-25T08:21:14.212Z,99239.06
2022-12-25T08:23:44.535Z,99243.81
2022-12-25T08:26:14.334Z,99251.00
2022-12-25T08:28:41.464Z,99253.59
2022-12-25T08:31:10.964Z,99259.28
2022-12-25T08:33:38.337Z,99252.00
2022-12-25T08:36:07.220Z,99251.41
2022-12-25T08:38:34.395Z,99250.06
2022-12-25T08:41:02.707Z,99250.38
2022-12-25T08:43:30.179Z,99250.22
2022-12-25T08:45:57.338Z,99245.50
2022-12-25T08:48:24.379Z,99249.09
2022-12-25T08:50:52.931Z,99256.66
2022-12-25T08:53:20.983Z,99249.78
2022-12-25T08:55:47.939Z,99243.25
2022-12-25T08:58:16.715Z,99252.81
2022-12-25T09:00:43.740Z,99250.25
2022-12-25T09:03:10.789Z,99243.94
2022-12-25T09:05:37.861Z,99235.53
2022-12-25T09:08:05.257Z,99225.84
2022-12-25T09:10:35.451Z,99232.13
2022-12-25T09:13:02.447Z,99235.59
2022-12-25T09:15:31.190Z,99235.81
2022-12-25T09:17:58.220Z,99234.59
2022-12-25T09:20:25.154Z,99237.94
2022-12-25T09:22:52.111Z,99231.81
2022-12-25T09:25:19.072Z,99239.41
2022-12-25T09:27:46.066Z,99235.56
2022-12-25T09:30:13.316Z,99236.25
2022-12-25T09:32:41.679Z,99235.13
2022-12-25T09:35:09.205Z,99226.03
2022-12-25T09:37:36.278Z,99236.75
2022-12-25T09:40:04.601Z,99234.69
2022-12-25T09:42:34.415Z,99234.31
2022-12-25T09:45:05.802Z,99239.69
2022-12-25T09:47:36.198Z,99245.25
2022-12-25T09:50:11.281Z,99246.34
2022-12-25T09:52:41.722Z,99251.31
2022-12-25T09:55:18.088Z,99251.94
2022-12-25T09:57:50.549Z,99241.63
2022-12-25T10:00:20.164Z,99244.13
2022-12-25T10:02:59.567Z,99245.84
2022-12-25T10:05:55.896Z,99245.34
2022-12-25T10:08:36.100Z,99249.50
2022-12-25T10:11:13.116Z,99238.31
2022-12-25T10:13:57.444Z,99240.25
2022-12-25T10:16:31.929Z,99236.34
2022-12-25T10:19:14.372Z,99239.22
2022-12-25T10:21:42.981Z,99238.50
2022-12-25T10:24:23.607Z,99246.97
2022-12-25T10:26:53.326Z,99242.09
2022-12-25T10:29:20.352Z,99238.56
2022-12-25T10:31:49.876Z,99241.28
2022-12-25T10:34:17.685Z,99244.00
2022-12-25T10:36:46.668Z,99251.69
2022-12-25T10:39:17.676Z,99247.38
2022-12-25T10:42:08.394Z,99227.47
2022-12-25T10:44:35.604Z,99242.84
2022-12-25T10:47:04.518Z,99236.78
2022-12-25T10:49:34.787Z,99239.47
2022-12-25T10:52:04.062Z,99245.44
2022-12-25T10:54:32.689Z,99257.09
2022-12-25T10:57:01.426Z,99240.50
2022-12-25T10:59:30.110Z,99250.06
2022-12-25T11:02:05.393Z,99252.66
2022-12-25T11:04:35.643Z,99249.09
2022-12-25T11:07:07.551Z,99248.78
2022-12-25T11:09:34.877Z,99251.16
2022-12-25T11:12:02.426Z,99256.34
2022-12-25T11:14:30.673Z,99256.53
2022-12-25T11:17:08.450Z,99251.56
2022-12-25T11:19:35.547Z,99256.75
2022-12-25T11:22:05.318Z,99261.94
2022-12-25T11:24:33.628Z,99258.22
2022-12-25T11:27:02.812Z,99256.66
2022-12-25T11:29:36.931Z,99263.44
2022-12-25T11:32:07.353Z,99259.81
2022-12-25T11:34:41.493Z,99259.59
2022-12-25T11:37:15.799Z,99267.47
2022-12-25T11:39:42.976Z,99266.78
2022-12-25T11:42:18.183Z,99258.69
2022-12-25T11:44:47.259Z,99267.69
2022-12-25T11:47:19.220Z,99266.78
2022-12-25T11:50:00.040Z,99283.00
2022-12-25T11:52:33.956Z,99277.03
2022-12-25T11:55:07.262Z,99269.56
2022-12-25T11:57:35.985Z,99266.19
2022-12-25T12:00:10.185Z,99268.72
2022-12-25T12:02:43.101Z,99270.72
2022-12-25T12:05:18.991Z,99271.63
2022-12-25T12:07:57.806Z,99261.69
2022-12-25T12:10:33.507Z,99258.97
2022-12-25T12:13:06.583Z,99274.28
2022-12-25T12:15:42.333Z,99266.31
2022-12-25T12:18:10.301Z,99275.00
2022-12-25T12:20:38.011Z,99275.03
2022-12-25T12:23:16.786Z,99283.69
2022-12-25T12:25:45.133Z,99289.78
2022-12-25T12:28:21.434Z,99294.50
2022-12-25T12:30:58.564Z,99287.97
2022-12-25T12:33:29.635Z,99293.59
2022-12-25T12:35:57.514Z,99287.78
2022-12-25T12:38:26.135Z,99277.63
2022-12-25T12:40:55.502Z,99282.03
2022-12-25T12:43:30.300Z,99284.59
2022-12-25T12:46:02.198Z,99279.97
2022-12-25T12:48:37.015Z,99277.38
2022-12-25T12:51:05.352Z,99288.06
2022-12-25T12:53:34.944Z,99293.06
2022-12-25T12:56:16.221Z,99296.50
2022-12-25T12:58:48.383Z,99290.41
2022-12-25T13:01:45.323Z,99295.91
2022-12-25T13:04:49.224Z,99300.97
2022-12-25T13:07:30.363Z,99299.75
2022-12-25T13:10:12.691Z,99304.28
2022-12-25T13:12:39.860Z,99289.41
2022-12-25T13:15:12.868Z,99284.75
2022-12-25T13:17:43.464Z,99292.22
2022-12-25T13:20:20.745Z,99290.78
2022-12-25T13:22:52.549Z,99280.34
2022-12-25T13:25:22.692Z,99285.28
2022-12-25T13:27:55.774Z,99286.16
2022-12-25T13:30:24.425Z,99296.00
2022-12-25T13:32:51.598Z,99294.97
2022-12-25T13:35:21.215Z,99298.34
2022-12-25T13:37:48.725Z,99307.44
2022-12-25T13:40:24.354Z,99300.72
2022-12-25T13:42:55.263Z,99303.69
2022-12-25T13:45:24.602Z,99305.72
2022-12-25T13:47:55.463Z,99305.09
2022-12-25T13:50:25.917Z,99308.56
2022-12-25T13:52:53.823Z,99322.47
2022-12-25T13:55:23.942Z,99313.44
2022-12-25T13:57:54.531Z,99322.41
2022-12-25T14:00:27.201Z,99320.97
2022-12-25T14:02:55.021Z,99314.91
2022-12-25T14:05:28.473Z,99317.78
2022-12-25T14:07:59.208Z,99318.28
2022-12-25T14:10:30.330Z,99328.44
2022-12-25T14:13:02.166Z,99334.63
2022-12-25T14:15:32.146Z,99333.91
2022-12-25T14:17:59.539Z,99336.31
2022-12-25T14:20:29.507Z,99329.16
2022-12-25T14:22:58.255Z,99334.75
2022-12-25T14:25:31.193Z,99339.19
2022-12-25T14:28:01.013Z,99341.16
2022-12-25T14:30:29.730Z,99337.84
2022-12-25T14:32:57.579Z,99347.34
2022-12-25T14:35:25.791Z,99353.69
2022-12-25T14:37:56.897Z,99359.19
2022-12-25T14:40:27.104Z,99357.53
2022-12-25T14:43:00.130Z,99359.00
2022-12-25T14:45:31.011Z,99371.38
2022-12-25T14:48:00.909Z,99377.16
2022-12-25T14:50:31.004Z,99373.63
2022-12-25T14:52:59.459Z,99376.28
2022-12-25T14:55:28.711Z,99391.78
2022-12-25T14:57:59.860Z,99375.16
2022-12-25T15:00:31.811Z,99378.13
2022-12-25T15:03:00.075Z,99374.78
2022-12-25T15:05:32.926Z,99378.91
2022-12-25T15:08:19.017Z,99382.25
2022-12-25T15:10:59.631Z,99383.03
2022-12-25T15:13:30.332Z,99388.94
2022-12-25T15:16:01.069Z,99397.81
2022-12-25T15:18:31.894Z,99405.28
2022-12-25T15:20:59.139Z,99405.84
2022-12-25T15:23:26.116Z,99402.22
2022-12-25T15:25:53.382Z,99396.66
2022-12-25T15:28:20.836Z,99407.31
2022-12-25T15:30:50.004Z,99401.94
2022-12-25T15:33:18.527Z,99403.31
2022-12-25T15:35:46.006Z,99406.63
2022-12-25T15:38:13.274Z,99402.88
2022-12-25T15:40:41.192Z,99409.19
2022-12-25T15:43:39.011Z,99413.13
2022-12-25T15:46:00.513Z,99416.25
2022-12-25T15:48:27.467Z,99421.06
2022-12-25T15:50:54.421Z,99425.56
2022-12-25T15:53:21.366Z,99421.16
2022-12-25T15:55:49.253Z,99429.81
2022-12-25T15:58:16.227Z,99433.47
2022-12-25T16:00:43.197Z,99424.13
2022-12-25T16:03:11.913Z,99420.53
2022-12-25T16:05:38.994Z,99432.34
2022-12-25T16:08:06.244Z,99426.72
2022-12-25T16:10:38.395Z,99428.59
2022-12-25T16:13:06.072Z,99443.31
2022-12-25T16:15:33.306Z,99448.75
2022-12-25T16:18:00.415Z,99443.75
2022-12-25T16:20:28.985Z,99448.44
2022-12-25T16:22:55.929Z,99442.06
2022-12-25T16:25:23.526Z,99449.16
2022-12-25T16:27:50.652Z,99436.72
2022-12-25T16:30:18.549Z,99450.66
2022-12-25T16:32:49.378Z,99462.78
2022-12-25T16:35:17.788Z,99470.59
2022-12-25T16:37:46.172Z,99461.03
2022-12-25T16:40:13.344Z,99460.78
2022-12-25T16:42:40.471Z,99461.66
2022-12-25T16:45:08.220Z,99479.50
2022-12-25T16:47:35.320Z,99479.13
2022-12-25T16:50:07.324Z,99476.84
2022-12-25T16:52:35.011Z,99483.53
2022-12-25T16:55:04.505Z,99486.81
2022-12-25T16:57:31.763Z,99488.25
2022-12-25T16:59:58.928Z,99496.66
2022-12-25T17:02:26.023Z,99494.16
2022-12-25T17:04:53.143Z,99495.97
2022-12-25T17:07:20.055Z,99496.31
2022-12-25T17:09:48.250Z,99492.00
2022-12-25T17:12:16.935Z,99500.19
2022-12-25T17:14:43.980Z,99498.19
2022-12-25T17:17:11.073Z,99492.41
2022-12-25T17:19:38.282Z,99496.91
2022-12-25T17:22:05.373Z,99487.81
2022-12-25T17:24:35.390Z,99489.75
2022-12-25T17:27:02.447Z,99488.84
2022-12-25T17:29:32.114Z,99484.75
2022-12-25T17:31:59.242Z,99500.66
2022-12-25T17:34:26.364Z,99498.16
2022-12-25T17:36:54.335Z,99497.56
2022-12-25T17:39:21.304Z,99497.38
2022-12-25T17:41:49.296Z,99496.09
2022-12-25T17:44:16.439Z,99501.28
2022-12-25T17:46:44.758Z,99506.72
2022-12-25T17:49:15.442Z,99506.13
2022-12-25T17:51:42.535Z,99507.78
2022-12-25T17:54:10.188Z,99522.34
2022-12-25T17:56:38.061Z,99517.88
2022-12-25T17:59:10.864Z,99514.88
2022-12-25T18:01:38.926Z,99519.84
2022-12-25T18:04:07.805Z,99525.59
2022-12-25T18:06:36.205Z,99516.66
2022-12-25T18:09:06.116Z,99517.09
2022-12-25T18:11:33.281Z,99519.53
2022-12-25T18:14:02.425Z,99525.28
2022-12-25T18:16:32.323Z,99528.47
2022-12-25T18:18:59.732Z,99538.69
2022-12-25T18:21:30.661Z,99538.34
2022-12-25T18:23:57.974Z,99549.84
2022-12-25T18:26:26.048Z,99542.19
2022-12-25T18:28:53.209Z,99547.59
2022-12-25T18:31:22.309Z,99543.47
2022-12-25T18:33:50.550Z,99546.34
2022-12-25T18:36:20.264Z,99540.59
2022-12-25T18:38:49.125Z,99546.47
2022-12-25T18:41:16.756Z,99551.72
2022-12-25T18:43:54.412Z,99552.38
2022-12-25T18:46:24.285Z,99557.13
2022-12-25T18:48:51.697Z,99550.09
2022-12-25T18:51:18.770Z,99559.81
2022-12-25T18:53:46.100Z,99560.63
2022-12-25T18:56:17.499Z,99561.41
2022-12-25T18:58:45.478Z,99565.41
2022-12-25T19:01:14.480Z,99556.19
2022-12-25T19:03:41.935Z,99556.34
2022-12-25T19:06:09.110Z,99566.56
2022-12-25T19:08:36.165Z,99561.75
2022-12-25T19:11:07.673Z,99575.28
2022-12-25T19:13:36.084Z,99574.66
2022-12-25T19:16:03.323Z,99561.59
2022-12-25T19:18:30.816Z,99561.59
2022-12-25T19:21:01.465Z,99567.31
2022-12-25T19:23:28.822Z,99581.94
2022-12-25T19:25:55.764Z,99583.84
2022-12-25T19:28:24.938Z,99580.34
2022-12-25T19:30:54.304Z,99575.56
2022-12-25T19:33:22.841Z,99582.91
2022-12-25T19:35:50.094Z,99573.63
2022-12-25T19:38:17.156Z,99577.75
2022-12-25T19:41:00.556Z,99569.28
2022-12-25T19:43:28.425Z,99564.69
2022-12-25T19:45:57.152Z,99577.13
2022-12-25T19:48:24.631Z,99569.19
2022-12-25T19:50:52.372Z,99567.41
2022-12-25T19:53:21.537Z,99575.38
2022-12-25T19:55:48.644Z,99572.34
2022-12-25T19:58:15.723Z,99575.03
2022-12-25T20:00:43.714Z,99582.00
2022-12-25T20:03:12.383Z,99596.81
2022-12-25T20:05:39.341Z,99596.47
2022-12-25T20:08:06.356Z,99601.84
2022-12-25T20:10:33.637Z,99602.66
2022-12-25T20:13:00.631Z,99609.66
2022-12-25T20:15:27.695Z,99602.28
2022-12-25T20:17:54.733Z,99601.13
2022-12-25T20:20:23.087Z,99602.22
2022-12-25T20:22:50.861Z,99597.59
2022-12-25T20:25:17.882Z,99605.88
2022-12-25T20:27:44.868Z,99595.03
2022-12-25T20:30:13.119Z,99601.22
2022-12-25T20:32:43.666Z,99608.50
2022-12-25T20:35:16.308Z,99604.03
2022-12-25T20:37:45.063Z,99604.47
2022-12-25T20:40:12.967Z,99625.44
2022-12-25T20:42:39.932Z,99617.22
2022-12-25T20:45:07.945Z,99626.66
2022-12-25T20:47:35.425Z,99622.31
2022-12-25T20:50:02.465Z,99624.13
2022-12-25T20:52:29.461Z,99626.69
2022-12-25T20:54:57.953Z,99633.06
2022-12-25T20:57:26.034Z,99633.78
2022-12-25T20:59:54.470Z,99627.09
2022-12-25T21:02:34.620Z,99629.94
2022-12-25T21:05:03.427Z,99639.69
2022-12-25T21:07:30.461Z,99642.22
2022-12-25T21:09:59.887Z,99641.81
2022-12-25T21:12:26.827Z,99638.44
2022-12-25T21:14:53.771Z,99642.59
2022-12-25T21:17:21.198Z,99632.06
2022-12-25T21:19:48.226Z,99629.13
2022-12-25T21:22:15.157Z,99629.28
2022-12-25T21:24:42.268Z,99630.78
2022-12-25T21:27:10.629Z,99636.16
2022-12-25T21:29:37.957Z,99639.81
2022-12-25T21:32:23.665Z,99643.72
2022-12-25T21:34:50.501Z,99646.28
2022-12-25T21:37:17.401Z,99643.88
2022-12-25T21:39:44.339Z,99639.47
2022-12-25T21:42:12.672Z,99637.41
2022-12-25T21:44:39.609Z,99628.28
2022-12-25T21:47:06.539Z,99636.72
2022-12-25T21:49:52.164Z,99636.44
2022-12-25T21:52:19.063Z,99643.78
2022-12-25T21:54:45.994Z,99640.00
2022-12-25T21:57:14.632Z,99638.56
2022-12-25T21:59:41.543Z,99632.94
2022-12-25T22:02:11.479Z,99643.25
2022-12-25T22:04:39.363Z,99638.72
2022-12-25T22:07:18.708Z,99642.41
2022-12-25T22:09:46.737Z,99653.75
2022-12-25T22:12:35.034Z,99647.22
2022-12-25T22:15:06.485Z,99646.13
2022-12-25T22:17:54.710Z,99640.09
2022-12-25T22:20:23.761Z,99641.84
2022-12-25T22:22:51.346Z,99654.72
2022-12-25T22:25:19.244Z,99659.00
2022-12-25T22:27:48.652Z,99657.81
2022-12-25T22:30:17.505Z,99655.00
2022-12-25T22:32:44.982Z,99657.69
2022-12-25T22:35:13.166Z,99653.69
2022-12-25T22:37:41.165Z,99653.97
2022-12-25T22:40:09.970Z,99660.28
2022-12-25T22:42:37.441Z,99657.50
2022-12-25T22:45:06.772Z,99653.78
2022-12-25T22:47:33.750Z,99662.63
2022-12-25T22:50:00.944Z,99656.50
2022-12-25T22:52:27.957Z,99669.91
2022-12-25T22:54:55.017Z,99666.06
2022-12-25T22:57:22.178Z,99653.13
2022-12-25T22:59:51.241Z,99659.03
2022-12-25T23:02:19.891Z,99655.44
2022-12-25T23:04:47.161Z,99656.94
2022-12-25T23:07:15.158Z,99674.22
2022-12-25T23:09:42.543Z,99670.31
2022-12-25T23:12:29.886Z,99662.19
2022-12-25T23:14:57.031Z,99669.25
2022-12-25T23:17:43.929Z,99668.88
2022-12-25T23:20:46.403Z,99664.34
2022-12-25T23:23:34.187Z,99664.88
2022-12-25T23:26:07.539Z,99679.88
2022-12-25T23:28:53.505Z,99679.31
2022-12-25T23:31:24.446Z,99675.47
2022-12-25T23:33:52.864Z,99689.22
2022-12-25T23:36:19.884Z,99694.69
2022-12-25T23:38:46.850Z,99696.47
2022-12-25T23:41:13.819Z,99685.25
2022-12-25T23:43:41.424Z,99701.38
2022-12-25T23:46:08.387Z,99708.09
2022-12-25T23:48:35.422Z,99709.69
2022-12-25T23:51:05.702Z,99708.34
2022-12-25T23:53:33.415Z,99723.03
2022-12-25T23:56:00.591Z,99737.59
2022-12-25T23:58:29.082Z,99728.78
